Time;durP1;ratioP1;P1;durP2;ratioP2;P2;SDS_P1;SDS_P2;PMS_P1;PMS_P2;Temp;Humidity;BMP_temperature;BMP_pressure;BME280_temperature;BME280_humidity;BME280_pressure;Samples;Min_cycle;Max_cycle;Signal;HPM_P1;HPM_P2
2023/12/25 00:01:43;;;;;;;3.65;0.90;;;25.60;99.90;;;;;;5007902;28;20191;-77
2023/12/25 00:04:14;;;;;;;3.42;0.90;;;25.50;99.90;;;;;;5001816;28;20229;-76
2023/12/25 00:06:45;;;;;;;3.28;0.98;;;25.50;99.90;;;;;;4999977;28;20214;-77
2023/12/25 00:09:17;;;;;;;3.20;0.95;;;25.50;99.90;;;;;;5001359;28;20214;-77
2023/12/25 00:11:48;;;;;;;4.57;1.17;;;25.60;99.90;;;;;;5000743;28;20225;-78
2023/12/25 00:14:20;;;;;;;2.22;0.77;;;25.60;99.90;;;;;;4999779;28;20198;-77
2023/12/25 00:16:51;;;;;;;2.42;0.90;;;25.60;99.90;;;;;;5000551;28;20223;-77
2023/12/25 00:19:22;;;;;;;4.15;1.02;;;25.60;99.90;;;;;;4997948;28;20201;-78
2023/12/25 00:21:53;;;;;;;6.30;1.08;;;25.70;99.90;;;;;;4988602;28;20595;-78
2023/12/25 00:24:26;;;;;;;1.92;0.85;;;25.60;99.90;;;;;;5000082;28;20202;-78
2023/12/25 00:26:57;;;;;;;2.50;1.00;;;25.70;99.90;;;;;;5004100;28;20723;-81
2023/12/25 00:29:26;;;;;;;4.47;1.10;;;25.80;99.90;;;;;;5007630;28;20248;-79
2023/12/25 00:31:57;;;;;;;4.43;1.15;;;25.70;99.90;;;;;;5008943;28;20208;-78
2023/12/25 00:34:28;;;;;;;3.85;0.90;;;25.70;99.90;;;;;;5009334;28;20202;-80
2023/12/25 00:36:58;;;;;;;5.70;1.20;;;25.90;99.90;;;;;;4999776;28;20257;-78
2023/12/25 00:39:31;;;;;;;2.13;0.85;;;25.90;99.90;;;;;;5009217;28;20202;-76
2023/12/25 00:42:05;;;;;;;4.65;1.05;;;25.90;99.90;;;;;;5005827;28;20209;-76
2023/12/25 00:44:36;;;;;;;3.75;1.00;;;26.00;99.90;;;;;;5004161;28;20205;-78
2023/12/25 00:47:07;;;;;;;4.20;1.10;;;26.10;99.90;;;;;;5002199;28;20206;-78
2023/12/25 00:49:38;;;;;;;4.53;1.27;;;26.20;99.90;;;;;;4991611;28;20665;-77
2023/12/25 00:52:08;;;;;;;4.40;1.08;;;26.20;99.90;;;;;;4989977;28;20716;-78
2023/12/25 00:54:41;;;;;;;1.83;0.90;;;26.20;99.90;;;;;;5002888;28;20202;-78
2023/12/25 00:57:12;;;;;;;4.88;2.00;;;26.30;99.90;;;;;;4997675;28;20641;-78
2023/12/25 00:59:43;;;;;;;3.75;1.10;;;26.30;99.90;;;;;;4989755;28;20207;-78
2023/12/25 01:02:14;;;;;;;2.70;1.00;;;26.30;99.90;;;;;;4995149;28;20207;-79
2023/12/25 01:04:45;;;;;;;2.42;0.95;;;26.40;99.90;;;;;;5003472;28;20715;-79
2023/12/25 01:07:16;;;;;;;4.35;0.80;;;26.50;99.90;;;;;;5001765;28;20281;-79
2023/12/25 01:09:49;;;;;;;4.20;0.93;;;26.50;99.90;;;;;;5009038;28;20237;-78
2023/12/25 01:12:19;;;;;;;3.13;0.95;;;26.70;99.90;;;;;;5008452;28;20396;-76
2023/12/25 01:14:50;;;;;;;4.32;1.20;;;26.80;99.90;;;;;;5001909;28;20208;-78
2023/12/25 01:17:21;;;;;;;1.83;0.90;;;26.90;99.90;;;;;;5003349;28;20233;-79
2023/12/25 01:19:52;;;;;;;3.55;0.98;;;26.90;99.90;;;;;;5011546;28;20205;-76
2023/12/25 01:22:23;;;;;;;3.58;0.95;;;27.00;99.90;;;;;;5004904;28;20194;-77
2023/12/25 01:24:55;;;;;;;3.72;1.00;;;27.10;99.90;;;;;;5001574;28;20190;-76
2023/12/25 01:27:26;;;;;;;2.03;0.98;;;27.10;99.90;;;;;;4995272;28;20200;-78
2023/12/25 01:29:57;;;;;;;2.08;1.08;;;27.10;99.90;;;;;;4994811;28;20665;-79
2023/12/25 01:32:28;;;;;;;1.55;0.82;;;27.10;99.90;;;;;;5006196;28;20209;-77
2023/12/25 01:34:58;;;;;;;2.45;1.00;;;27.00;99.90;;;;;;5018037;28;20201;-77
2023/12/25 01:37:29;;;;;;;1.50;0.80;;;27.10;99.90;;;;;;5016843;28;20228;-77
2023/12/25 01:40:05;;;;;;;1.48;1.02;;;27.00;99.90;;;;;;5004862;28;20292;-78
2023/12/25 01:42:35;;;;;;;2.50;1.05;;;26.90;99.90;;;;;;5001063;28;20189;-77
2023/12/25 01:45:07;;;;;;;1.45;1.00;;;26.90;99.90;;;;;;5007334;28;20243;-78
2023/12/25 01:47:38;;;;;;;1.20;1.10;;;27.00;99.90;;;;;;4992415;28;20186;-77
2023/12/25 01:50:10;;;;;;;1.60;1.23;;;27.10;99.90;;;;;;5000622;28;20221;-78
2023/12/25 01:52:41;;;;;;;1.77;1.27;;;27.30;99.90;;;;;;5004799;28;20790;-76
2023/12/25 01:55:14;;;;;;;3.53;1.40;;;27.50;99.90;;;;;;5008276;28;20232;-77
2023/12/25 01:57:45;;;;;;;1.55;1.20;;;27.70;99.90;;;;;;5006555;28;20237;-77
2023/12/25 02:00:17;;;;;;;3.60;1.23;;;27.70;99.90;;;;;;5006449;28;20857;-77
2023/12/25 02:02:47;;;;;;;1.83;1.02;;;27.80;99.90;;;;;;5005903;28;20206;-77
2023/12/25 02:05:19;;;;;;;1.40;0.88;;;27.70;99.90;;;;;;4999022;28;20221;-77
2023/12/25 02:07:51;;;;;;;1.83;1.00;;;27.70;99.90;;;;;;5003047;28;20210;-78
2023/12/25 02:10:33;;;;;;;2.22;1.02;;;27.70;99.90;;;;;;5000134;28;20284;-77
2023/12/25 02:13:05;;;;;;;2.42;0.85;;;27.70;99.90;;;;;;5014206;28;20205;-78
2023/12/25 02:15:36;;;;;;;2.15;0.90;;;27.70;99.90;;;;;;4989733;28;20569;-76
2023/12/25 02:18:07;;;;;;;3.25;0.80;;;27.70;99.90;;;;;;5002045;28;20255;-77
2023/12/25 02:20:38;;;;;;;2.03;0.80;;;27.60;99.90;;;;;;5006889;28;20676;-77
2023/12/25 02:23:12;;;;;;;1.75;0.70;;;27.40;99.90;;;;;;5007775;28;20199;-77
2023/12/25 02:25:56;;;;;;;1.10;0.63;;;27.20;99.90;;;;;;5007891;28;20627;-76
2023/12/25 02:28:27;;;;;;;1.27;0.60;;;27.20;99.90;;;;;;4987422;28;20217;-77
2023/12/25 02:30:58;;;;;;;1.65;0.65;;;27.20;99.90;;;;;;4999908;28;20580;-76
2023/12/25 02:33:29;;;;;;;1.73;0.93;;;27.30;99.90;;;;;;5000909;28;20229;-77
2023/12/25 02:36:00;;;;;;;2.42;1.33;;;27.40;99.90;;;;;;5025071;28;20205;-77
2023/12/25 02:38:30;;;;;;;2.13;1.20;;;27.40;99.90;;;;;;4991589;28;20226;-78
2023/12/25 02:41:03;;;;;;;2.92;1.10;;;27.20;99.90;;;;;;4997628;28;20198;-79
2023/12/25 02:43:34;;;;;;;3.97;1.35;;;27.10;99.90;;;;;;4997505;28;20635;-77
2023/12/25 02:46:04;;;;;;;3.72;1.60;;;27.10;99.90;;;;;;4990998;28;20575;-77
2023/12/25 02:48:35;;;;;;;3.65;0.95;;;27.10;99.90;;;;;;5007857;28;20205;-78
2023/12/25 02:51:06;;;;;;;1.75;0.70;;;27.10;99.90;;;;;;5011647;28;20205;-78
2023/12/25 02:53:38;;;;;;;2.78;0.80;;;27.30;99.90;;;;;;4991222;28;20195;-80
2023/12/25 02:56:11;;;;;;;3.65;0.73;;;27.50;99.90;;;;;;4997384;28;20198;-79
2023/12/25 02:58:41;;;;;;;4.03;0.80;;;27.70;99.90;;;;;;5000238;28;20250;-80
2023/12/25 03:01:12;;;;;;;2.80;0.75;;;27.60;99.90;;;;;;4991344;28;20669;-79
2023/12/25 03:03:43;;;;;;;2.60;0.70;;;27.60;99.90;;;;;;4993435;28;20202;-79
2023/12/25 03:06:14;;;;;;;3.40;0.77;;;27.50;99.90;;;;;;5003757;28;20602;-80
2023/12/25 03:08:45;;;;;;;2.45;0.70;;;27.40;99.90;;;;;;4991503;28;20199;-79
2023/12/25 03:11:17;;;;;;;3.90;0.80;;;27.30;99.90;;;;;;4996173;28;20281;-80
2023/12/25 03:13:48;;;;;;;3.03;0.70;;;27.30;99.90;;;;;;5010339;28;20289;-78
2023/12/25 03:16:20;;;;;;;2.80;0.90;;;27.40;99.90;;;;;;5009616;28;20216;-79
2023/12/25 03:18:51;;;;;;;3.92;0.90;;;27.50;99.90;;;;;;4997375;28;20273;-79
2023/12/25 03:21:22;;;;;;;2.75;0.70;;;27.50;99.90;;;;;;4993929;28;20308;-79
2023/12/25 03:23:53;;;;;;;3.47;0.70;;;27.40;99.90;;;;;;5003472;28;20284;-79
2023/12/25 03:26:25;;;;;;;3.13;0.90;;;27.40;99.90;;;;;;4990583;28;20202;-78
2023/12/25 03:28:56;;;;;;;2.53;1.10;;;27.40;99.90;;;;;;4997321;28;20212;-79
2023/12/25 03:31:27;;;;;;;3.45;0.95;;;27.50;99.90;;;;;;5010285;28;20202;-77
2023/12/25 03:33:59;;;;;;;4.90;1.10;;;27.50;99.90;;;;;;5004645;28;20214;-80
2023/12/25 03:36:30;;;;;;;3.83;0.85;;;27.60;99.90;;;;;;5022744;28;20210;-80
2023/12/25 03:39:01;;;;;;;2.30;0.80;;;27.70;99.90;;;;;;4993893;28;20793;-79
2023/12/25 03:41:34;;;;;;;2.13;0.80;;;27.70;99.90;;;;;;4996869;28;20518;-79
2023/12/25 03:44:04;;;;;;;4.18;1.00;;;27.80;99.90;;;;;;4995301;28;20205;-81
2023/12/25 03:46:35;;;;;;;2.70;0.60;;;27.70;99.90;;;;;;5007875;28;20273;-79
2023/12/25 03:49:06;;;;;;;1.67;0.70;;;27.80;99.90;;;;;;5012571;28;20217;-80
2023/12/25 03:51:38;;;;;;;6.90;1.30;;;27.70;99.90;;;;;;5007093;28;20198;-79
2023/12/25 03:54:09;;;;;;;4.00;1.13;;;27.60;99.90;;;;;;5002911;28;20214;-79
2023/12/25 03:56:42;;;;;;;2.55;0.75;;;27.60;99.90;;;;;;5010159;28;20959;-78
2023/12/25 03:59:13;;;;;;;2.30;0.80;;;27.70;99.90;;;;;;4993158;28;20451;-78
2023/12/25 04:01:44;;;;;;;3.65;0.82;;;27.70;99.90;;;;;;4990461;28;20219;-78
2023/12/25 04:04:14;;;;;;;2.78;0.80;;;27.70;99.90;;;;;;4999904;28;20198;-78
2023/12/25 04:06:45;;;;;;;2.92;0.77;;;27.70;99.90;;;;;;5023209;28;20209;-78
2023/12/25 04:09:19;;;;;;;3.13;0.98;;;27.60;99.90;;;;;;5005951;28;20205;-78
2023/12/25 04:11:51;;;;;;;3.63;1.10;;;27.60;99.90;;;;;;4991251;28;20219;-79
2023/12/25 04:14:22;;;;;;;5.05;0.80;;;27.60;99.90;;;;;;4999400;28;20198;-77
2023/12/25 04:16:53;;;;;;;4.03;0.80;;;27.70;99.90;;;;;;5001564;28;20199;-77
2023/12/25 04:19:24;;;;;;;3.05;1.13;;;27.50;99.90;;;;;;5005108;28;20233;-77
2023/12/25 04:21:55;;;;;;;3.17;0.98;;;27.60;99.90;;;;;;5011831;28;20212;-77
2023/12/25 04:24:25;;;;;;;4.82;0.80;;;27.70;99.90;;;;;;4993985;28;20221;-78
2023/12/25 04:26:58;;;;;;;3.53;0.90;;;27.70;99.90;;;;;;5012719;28;20194;-78
2023/12/25 04:29:29;;;;;;;1.83;0.82;;;27.80;99.90;;;;;;4994836;28;20217;-78
2023/12/25 04:32:00;;;;;;;3.95;0.85;;;27.60;99.90;;;;;;4990851;28;20687;-78
2023/12/25 04:34:30;;;;;;;3.85;0.80;;;27.60;99.90;;;;;;5003488;28;20199;-77
2023/12/25 04:37:01;;;;;;;3.85;0.98;;;27.60;99.90;;;;;;5010153;28;20589;-78
2023/12/25 04:39:33;;;;;;;3.17;0.90;;;27.50;99.90;;;;;;5006909;28;20221;-78
2023/12/25 04:42:06;;;;;;;3.15;0.85;;;27.40;99.90;;;;;;5000564;28;20217;-80
2023/12/25 04:44:36;;;;;;;3.45;1.00;;;27.30;99.90;;;;;;4999647;28;20202;-79
2023/12/25 04:47:07;;;;;;;2.95;0.88;;;27.20;99.90;;;;;;5009347;28;20664;-78
2023/12/25 04:49:38;;;;;;;6.18;1.15;;;27.20;99.90;;;;;;5009340;28;20548;-79
2023/12/25 04:52:09;;;;;;;4.90;1.48;;;27.10;99.90;;;;;;5026306;28;20555;-78
2023/12/25 04:54:40;;;;;;;7.72;1.50;;;27.00;99.90;;;;;;5017653;28;20201;-79
2023/12/25 04:57:12;;;;;;;8.48;2.50;;;27.00;99.90;;;;;;5005721;28;20225;-78
2023/12/25 04:59:44;;;;;;;5.50;1.98;;;27.00;99.90;;;;;;5005864;28;20306;-79
2023/12/25 05:02:15;;;;;;;7.80;2.80;;;26.90;99.90;;;;;;4990150;28;20219;-79
2023/12/25 05:04:45;;;;;;;5.88;1.65;;;26.90;99.90;;;;;;5005810;28;20198;-79
2023/12/25 05:07:16;;;;;;;7.35;2.47;;;26.90;99.90;;;;;;4997266;28;20194;-78
2023/12/25 05:09:47;;;;;;;5.22;1.60;;;26.90;99.90;;;;;;4998316;28;20281;-79
2023/12/25 05:12:20;;;;;;;4.30;1.67;;;26.80;99.90;;;;;;4989474;28;20230;-80
2023/12/25 05:14:51;;;;;;;2.10;0.90;;;26.80;99.90;;;;;;5008004;28;20212;-80
2023/12/25 05:17:22;;;;;;;3.13;0.93;;;26.80;99.90;;;;;;5007522;28;20204;-80
2023/12/25 05:19:52;;;;;;;3.75;1.10;;;26.70;99.90;;;;;;5009475;28;20240;-80
2023/12/25 05:22:23;;;;;;;3.88;1.40;;;26.70;99.90;;;;;;5021786;28;20205;-79
2023/12/25 05:24:54;;;;;;;3.85;1.00;;;26.70;99.90;;;;;;4989487;28;20301;-80
2023/12/25 05:27:27;;;;;;;2.45;0.95;;;26.60;99.90;;;;;;4989270;28;20576;-79
2023/12/25 05:29:57;;;;;;;2.85;1.08;;;26.50;99.90;;;;;;4997848;28;20212;-80
2023/12/25 05:32:30;;;;;;;3.88;0.88;;;26.50;99.90;;;;;;5005497;28;20260;-79
2023/12/25 05:35:01;;;;;;;5.72;1.58;;;26.40;99.90;;;;;;4994759;28;20230;-81
2023/12/25 05:37:31;;;;;;;6.60;1.20;;;26.30;99.90;;;;;;5003663;28;20197;-81
2023/12/25 05:40:02;;;;;;;3.15;1.23;;;26.30;99.90;;;;;;5004474;28;20240;-80
2023/12/25 05:42:35;;;;;;;2.97;1.00;;;26.30;99.90;;;;;;5007223;28;20191;-81
2023/12/25 05:45:06;;;;;;;1.95;0.93;;;26.20;99.90;;;;;;4988730;28;20779;-80
2023/12/25 05:47:37;;;;;;;3.92;0.90;;;26.10;99.90;;;;;;4994036;28;20198;-80
2023/12/25 05:50:09;;;;;;;3.70;0.98;;;26.00;99.90;;;;;;5010574;28;20201;-79
2023/12/25 05:52:40;;;;;;;2.63;0.85;;;26.00;99.90;;;;;;4988778;28;20198;-80
2023/12/25 05:55:12;;;;;;;3.88;1.00;;;26.00;99.90;;;;;;4990616;28;20199;-80
2023/12/25 05:57:44;;;;;;;3.40;0.95;;;25.90;99.90;;;;;;4991004;28;20239;-78
2023/12/25 06:00:19;;;;;;;3.55;0.88;;;25.90;99.90;;;;;;4992379;28;20228;-79
2023/12/25 06:02:49;;;;;;;2.97;0.77;;;25.90;99.90;;;;;;4997684;28;20209;-78
2023/12/25 06:05:20;;;;;;;4.72;1.00;;;25.90;99.90;;;;;;5009235;28;20218;-79
2023/12/25 06:07:51;;;;;;;4.90;1.10;;;25.90;99.90;;;;;;4986821;28;20226;-78
2023/12/25 06:10:22;;;;;;;2.67;0.70;;;25.80;99.90;;;;;;4991650;28;20229;-78
2023/12/25 06:12:55;;;;;;;3.97;0.70;;;25.80;99.90;;;;;;5005404;28;20245;-79
2023/12/25 06:15:26;;;;;;;4.57;1.15;;;25.80;99.90;;;;;;5006437;28;20228;-79
2023/12/25 06:17:57;;;;;;;2.88;1.00;;;25.70;99.90;;;;;;5006359;28;20209;-79
2023/12/25 06:20:28;;;;;;;2.10;0.80;;;25.70;99.90;;;;;;4989600;28;20198;-78
2023/12/25 06:22:59;;;;;;;2.25;0.73;;;25.70;99.90;;;;;;4989490;28;20289;-77
2023/12/25 06:25:35;;;;;;;3.17;0.75;;;25.60;99.90;;;;;;4995453;28;20202;-79
2023/12/25 06:28:13;;;;;;;3.90;0.80;;;25.60;99.90;;;;;;5000097;28;20209;-80
2023/12/25 06:30:44;;;;;;;2.78;0.70;;;25.60;99.90;;;;;;4996193;28;20218;-78
2023/12/25 06:33:15;;;;;;;2.05;0.77;;;25.60;99.90;;;;;;5020855;28;20195;-79
2023/12/25 06:35:46;;;;;;;3.00;0.70;;;25.60;99.90;;;;;;5003163;28;20281;-78
2023/12/25 06:38:17;;;;;;;3.70;0.93;;;25.60;99.90;;;;;;4992571;28;20325;-78
2023/12/25 06:40:47;;;;;;;2.83;0.80;;;25.50;99.90;;;;;;5004777;28;20198;-78
2023/12/25 06:43:20;;;;;;;4.03;0.80;;;25.60;99.90;;;;;;5004236;28;20703;-78
2023/12/25 06:45:51;;;;;;;2.83;0.80;;;25.60;99.90;;;;;;4994825;28;20254;-79
2023/12/25 06:48:22;;;;;;;3.42;1.10;;;25.60;99.90;;;;;;4988273;28;20202;-78
2023/12/25 06:50:53;;;;;;;5.47;1.13;;;25.60;99.90;;;;;;5020995;28;20201;-78
2023/12/25 06:53:24;;;;;;;3.97;1.00;;;25.60;99.90;;;;;;5021282;28;20230;-77
2023/12/25 06:55:54;;;;;;;3.35;1.10;;;25.50;99.90;;;;;;5000403;28;20214;-79
2023/12/25 06:58:27;;;;;;;4.20;1.30;;;25.50;99.90;;;;;;5011990;28;20234;-79
2023/12/25 07:01:00;;;;;;;2.10;0.98;;;25.40;99.90;;;;;;5008777;28;20237;-79
2023/12/25 07:03:32;;;;;;;4.13;0.90;;;25.40;99.90;;;;;;5001466;28;20289;-81
2023/12/25 07:06:03;;;;;;;4.50;1.08;;;25.30;99.90;;;;;;4996779;28;20199;-81
2023/12/25 07:08:33;;;;;;;4.80;1.10;;;25.30;99.90;;;;;;4999743;28;20201;-80
2023/12/25 07:11:04;;;;;;;3.25;0.80;;;25.30;99.90;;;;;;5002992;28;20204;-79
2023/12/25 07:13:37;;;;;;;5.28;1.20;;;25.30;99.90;;;;;;5001121;28;20724;-81
2023/12/25 07:16:08;;;;;;;5.40;1.10;;;25.30;99.90;;;;;;5002226;28;20217;-79
2023/12/25 07:18:39;;;;;;;4.97;1.17;;;25.30;99.90;;;;;;4996641;28;20223;-78
2023/12/25 07:21:10;;;;;;;2.40;1.10;;;25.30;99.90;;;;;;4993579;28;20768;-79
2023/12/25 07:23:41;;;;;;;3.15;1.10;;;25.20;99.90;;;;;;5013700;28;20194;-79
2023/12/25 07:26:11;;;;;;;3.47;1.27;;;25.20;99.90;;;;;;5001802;28;20202;-78
2023/12/25 07:28:44;;;;;;;7.32;1.35;;;25.10;99.90;;;;;;5000505;28;20199;-79
2023/12/25 07:31:16;;;;;;;5.90;1.20;;;25.00;99.90;;;;;;4990601;28;20204;-80
2023/12/25 07:33:47;;;;;;;2.67;0.85;;;24.90;99.90;;;;;;4992216;28;20313;-80
2023/12/25 07:36:20;;;;;;;5.50;1.10;;;24.80;99.90;;;;;;5017046;28;20194;-80
2023/12/25 07:38:50;;;;;;;4.55;1.30;;;24.80;99.90;;;;;;4998364;28;20299;-78
2023/12/25 07:41:24;;;;;;;4.50;1.15;;;24.60;99.90;;;;;;5025573;28;20198;-78
2023/12/25 07:44:00;;;;;;;3.10;1.00;;;24.50;99.90;;;;;;5029951;28;20232;-80
2023/12/25 07:46:31;;;;;;;9.30;1.20;;;24.50;99.90;;;;;;5011302;28;20216;-79
2023/12/25 07:49:01;;;;;;;4.68;1.20;;;24.40;99.90;;;;;;5002600;28;20202;-80
2023/12/25 07:51:32;;;;;;;5.03;0.95;;;24.40;99.90;;;;;;5024611;28;20230;-79
2023/12/25 07:54:03;;;;;;;2.00;0.88;;;24.40;99.90;;;;;;5012080;28;20682;-80
2023/12/25 07:56:34;;;;;;;3.65;1.00;;;24.40;99.90;;;;;;4996026;28;20318;-79
2023/12/25 07:59:07;;;;;;;6.07;1.30;;;24.40;99.90;;;;;;5007316;28;20228;-79
2023/12/25 08:01:38;;;;;;;5.18;1.20;;;24.40;99.90;;;;;;5009075;28;20210;-79
2023/12/25 08:04:08;;;;;;;4.75;1.17;;;24.40;99.90;;;;;;5007313;28;20222;-80
2023/12/25 08:06:39;;;;;;;7.07;1.20;;;24.30;99.90;;;;;;5004677;28;20197;-78
2023/12/25 08:09:10;;;;;;;5.85;1.13;;;24.40;99.90;;;;;;5015056;28;20230;-78
2023/12/25 08:11:42;;;;;;;5.57;1.30;;;24.50;99.90;;;;;;5008405;28;20339;-80
2023/12/25 08:14:17;;;;;;;6.00;1.20;;;24.50;99.90;;;;;;4992325;28;20195;-80
2023/12/25 08:16:48;;;;;;;7.65;1.40;;;24.50;99.90;;;;;;4993313;28;20213;-80
2023/12/25 08:19:19;;;;;;;6.10;1.02;;;24.50;99.90;;;;;;5015722;28;20218;-79
2023/12/25 08:21:50;;;;;;;6.35;1.30;;;24.50;99.90;;;;;;5023172;28;20297;-80
2023/12/25 08:24:21;;;;;;;4.88;1.33;;;24.50;99.90;;;;;;5005516;28;20186;-79
2023/12/25 08:26:52;;;;;;;3.25;0.95;;;24.60;99.90;;;;;;5003515;28;20194;-79
2023/12/25 08:29:25;;;;;;;5.20;1.30;;;24.50;99.90;;;;;;4996608;28;20253;-79
2023/12/25 08:31:56;;;;;;;5.50;1.13;;;24.50;99.90;;;;;;4992834;28;20203;-78
2023/12/25 08:34:27;;;;;;;5.85;1.50;;;24.50;99.90;;;;;;5004318;28;20572;-78
2023/12/25 08:36:58;;;;;;;2.60;0.80;;;24.50;99.90;;;;;;5008013;28;20306;-78
2023/12/25 08:39:29;;;;;;;4.95;1.10;;;24.50;99.90;;;;;;4993775;28;20222;-78
2023/12/25 08:42:02;;;;;;;4.93;1.10;;;24.50;99.90;;;;;;4989769;28;20197;-78
2023/12/25 08:44:35;;;;;;;5.57;1.27;;;24.50;99.90;;;;;;4989817;28;20290;-78
2023/12/25 08:47:06;;;;;;;5.50;1.27;;;24.40;99.90;;;;;;4998117;28;20270;-78
2023/12/25 08:49:38;;;;;;;5.72;1.20;;;24.50;99.90;;;;;;5000901;28;20744;-78
2023/12/25 08:52:08;;;;;;;4.95;1.40;;;24.40;99.90;;;;;;5013370;28;20257;-78
2023/12/25 08:54:39;;;;;;;2.40;1.00;;;24.40;99.90;;;;;;4992234;28;20206;-78
2023/12/25 08:57:10;;;;;;;6.15;1.23;;;24.40;99.90;;;;;;4989687;28;20233;-77
2023/12/25 08:59:43;;;;;;;4.30;1.30;;;24.40;99.90;;;;;;4989611;28;20226;-78
2023/12/25 09:02:14;;;;;;;6.57;1.33;;;24.30;99.90;;;;;;5042951;28;20197;-78
2023/12/25 09:04:45;;;;;;;4.82;1.20;;;24.30;99.90;;;;;;5005222;28;20217;-78
2023/12/25 09:07:16;;;;;;;5.80;1.33;;;24.30;99.90;;;;;;5012734;28;20195;-78
2023/12/25 09:09:46;;;;;;;3.63;1.20;;;24.30;99.90;;;;;;4988787;28;20239;-78
2023/12/25 09:12:17;;;;;;;5.80;1.50;;;24.30;99.90;;;;;;4990421;28;20638;-79
2023/12/25 09:14:52;;;;;;;5.05;1.30;;;24.20;99.90;;;;;;4997834;28;20202;-79
2023/12/25 09:17:23;;;;;;;7.00;1.23;;;24.30;99.90;;;;;;5021024;28;20189;-81
2023/12/25 09:19:54;;;;;;;5.78;1.33;;;24.30;99.90;;;;;;5013362;28;20219;-79
2023/12/25 09:22:28;;;;;;;5.00;1.40;;;24.30;99.90;;;;;;5009150;28;20199;-77
2023/12/25 09:24:59;;;;;;;4.60;1.33;;;24.20;99.90;;;;;;4993664;28;20263;-77
2023/12/25 09:27:31;;;;;;;5.45;1.50;;;24.20;99.90;;;;;;5000680;28;20196;-77
2023/12/25 09:30:04;;;;;;;3.13;1.20;;;24.30;99.90;;;;;;5000325;28;20208;-78
2023/12/25 09:32:35;;;;;;;3.85;1.27;;;24.30;99.90;;;;;;5008258;28;20206;-78
2023/12/25 09:35:08;;;;;;;5.82;1.30;;;24.30;99.90;;;;;;4990435;28;20249;-78
2023/12/25 09:37:39;;;;;;;4.32;1.50;;;24.30;99.90;;;;;;5005386;28;20213;-79
2023/12/25 09:40:10;;;;;;;4.63;1.20;;;24.30;99.90;;;;;;5000955;28;20215;-78
2023/12/25 09:42:43;;;;;;;5.70;1.05;;;24.30;99.90;;;;;;4996688;28;20217;-78
2023/12/25 09:45:17;;;;;;;6.22;1.30;;;24.30;99.90;;;;;;5012058;28;20206;-79
2023/12/25 09:47:49;;;;;;;4.72;1.35;;;24.40;99.90;;;;;;5009722;28;20776;-79
2023/12/25 09:50:22;;;;;;;7.40;1.63;;;24.40;99.90;;;;;;5005986;28;20634;-79
2023/12/25 09:52:53;;;;;;;7.22;1.40;;;24.40;99.90;;;;;;5017278;28;20198;-78
2023/12/25 09:55:25;;;;;;;8.50;1.58;;;24.40;99.90;;;;;;4996902;28;20213;-78
2023/12/25 09:57:57;;;;;;;9.98;1.80;;;24.40;99.90;;;;;;5004322;28;20255;-76
2023/12/25 10:00:30;;;;;;;6.85;1.40;;;24.30;99.90;;;;;;5006700;28;20230;-78
2023/12/25 10:03:02;;;;;;;7.63;1.70;;;24.30;99.90;;;;;;5003926;28;20289;-80
2023/12/25 10:05:33;;;;;;;6.43;1.75;;;24.40;99.90;;;;;;4989361;28;20190;-77
2023/12/25 10:08:04;;;;;;;7.00;1.90;;;24.30;99.90;;;;;;5019282;28;20198;-78
2023/12/25 10:10:35;;;;;;;7.78;1.83;;;24.40;99.90;;;;;;4998081;28;20684;-78
2023/12/25 10:13:06;;;;;;;7.45;1.77;;;24.40;99.90;;;;;;4990018;28;20213;-78
2023/12/25 10:15:42;;;;;;;9.90;1.92;;;24.40;99.90;;;;;;4988925;28;20580;-77
2023/12/25 10:18:12;;;;;;;12.00;1.80;;;24.40;99.90;;;;;;5007570;28;20216;-79
2023/12/25 10:20:56;;;;;;;10.10;2.20;;;24.40;99.90;;;;;;5005984;28;20233;-84
2023/12/25 10:23:32;;;;;;;10.80;1.65;;;24.40;99.90;;;;;;4987934;28;20205;-81
2023/12/25 10:26:04;;;;;;;7.35;1.73;;;24.50;99.90;;;;;;5002961;28;20204;-81
2023/12/25 10:28:36;;;;;;;7.63;1.50;;;24.40;99.90;;;;;;4993583;28;20657;-81
2023/12/25 10:31:10;;;;;;;5.55;1.50;;;24.40;99.90;;;;;;4989719;28;20213;-81
2023/12/25 10:33:41;;;;;;;5.82;1.67;;;24.50;99.90;;;;;;4991169;28;20546;-80
2023/12/25 10:36:13;;;;;;;6.78;1.42;;;24.40;99.90;;;;;;4994201;28;20198;-80
2023/12/25 10:38:44;;;;;;;9.65;1.55;;;24.40;99.90;;;;;;5003471;28;20247;-76
2023/12/25 10:41:22;;;;;;;7.60;1.95;;;24.40;99.90;;;;;;4996366;28;20227;-80
2023/12/25 10:43:56;;;;;;;9.77;1.90;;;24.50;99.90;;;;;;4995795;28;20225;-80
2023/12/25 10:46:29;;;;;;;9.40;1.92;;;24.50;99.90;;;;;;4999366;28;20399;-79
2023/12/25 10:49:01;;;;;;;7.40;1.77;;;24.50;99.90;;;;;;4992294;28;20553;-82
2023/12/25 10:51:35;;;;;;;8.05;1.80;;;24.50;99.90;;;;;;5007566;28;20211;-80
2023/12/25 10:54:07;;;;;;;10.48;1.67;;;24.50;99.90;;;;;;5029956;28;20202;-80
2023/12/25 10:56:39;;;;;;;6.93;1.70;;;24.50;99.90;;;;;;5027876;28;20222;-79
2023/12/25 10:59:16;;;;;;;7.18;1.55;;;24.60;99.90;;;;;;5000601;28;20203;-79
2023/12/25 11:01:50;;;;;;;6.35;1.40;;;24.50;99.90;;;;;;4996447;28;20241;-80
2023/12/25 11:04:23;;;;;;;6.00;1.55;;;24.60;99.90;;;;;;4992813;28;20203;-79
2023/12/25 11:06:56;;;;;;;7.03;1.58;;;24.60;99.90;;;;;;5001408;28;20255;-80
2023/12/25 11:09:28;;;;;;;6.90;1.52;;;24.60;99.90;;;;;;5001724;28;20198;-79
2023/12/25 11:12:01;;;;;;;7.05;1.60;;;24.60;99.90;;;;;;5002461;28;20265;-78
2023/12/25 11:14:33;;;;;;;6.50;1.50;;;24.60;99.90;;;;;;4993448;28;20360;-79
2023/12/25 11:17:06;;;;;;;8.32;1.60;;;24.50;99.90;;;;;;4998919;28;20700;-78
2023/12/25 11:19:38;;;;;;;5.13;1.20;;;24.50;99.90;;;;;;4989969;28;20206;-78
2023/12/25 11:22:29;;;;;;;5.85;1.42;;;24.50;99.90;;;;;;4995212;28;20269;-79
2023/12/25 11:25:01;;;;;;;4.35;1.23;;;24.50;99.90;;;;;;5001210;28;20218;-79
2023/12/25 11:27:32;;;;;;;5.78;1.48;;;24.40;99.90;;;;;;5003756;28;20687;-78
2023/12/25 11:30:10;;;;;;;10.93;1.80;;;24.40;99.90;;;;;;4994265;28;20242;-78
2023/12/25 11:32:45;;;;;;;7.40;1.67;;;24.40;99.90;;;;;;4997294;28;20546;-77
2023/12/25 11:35:17;;;;;;;7.45;1.40;;;24.30;99.90;;;;;;5022664;28;20724;-78
2023/12/25 11:37:48;;;;;;;10.15;1.50;;;24.30;99.90;;;;;;4994606;28;20209;-78
2023/12/25 11:40:21;;;;;;;6.60;1.42;;;24.30;99.90;;;;;;5001718;28;20217;-79
2023/12/25 11:42:52;;;;;;;4.60;1.20;;;24.30;99.90;;;;;;5005034;28;20203;-78
2023/12/25 11:45:30;;;;;;;7.78;1.42;;;24.30;99.90;;;;;;4990515;28;20199;-76
2023/12/25 11:48:04;;;;;;;4.75;1.15;;;24.30;99.90;;;;;;4991700;28;20212;-77
2023/12/25 11:50:36;;;;;;;6.25;1.55;;;24.30;99.90;;;;;;5003290;28;20201;-78
2023/12/25 11:53:07;;;;;;;7.05;1.40;;;24.30;99.90;;;;;;5019876;28;20613;-77
2023/12/25 11:55:39;;;;;;;6.68;1.63;;;24.30;99.90;;;;;;4996508;28;20194;-76
2023/12/25 11:58:10;;;;;;;5.82;1.33;;;24.30;99.90;;;;;;4993266;28;20236;-79
2023/12/25 12:00:41;;;;;;;5.82;1.45;;;24.30;99.90;;;;;;4997492;28;20226;-77
2023/12/25 12:03:14;;;;;;;10.30;1.67;;;24.30;99.90;;;;;;5002175;28;20681;-77
2023/12/25 12:05:47;;;;;;;7.70;1.45;;;24.30;99.90;;;;;;4995631;28;20296;-78
2023/12/25 12:08:17;;;;;;;5.88;1.38;;;24.30;99.90;;;;;;5005116;28;20286;-77
2023/12/25 12:10:48;;;;;;;6.47;1.38;;;24.30;99.90;;;;;;4999312;28;20233;-77
2023/12/25 12:13:19;;;;;;;6.85;1.52;;;24.20;99.90;;;;;;5002913;28;20233;-77
2023/12/25 12:15:50;;;;;;;6.60;1.50;;;24.20;99.90;;;;;;5017303;28;20229;-78
2023/12/25 12:18:25;;;;;;;7.60;1.58;;;24.20;99.90;;;;;;4990848;28;20606;-78
2023/12/25 12:20:56;;;;;;;6.47;1.63;;;24.30;99.90;;;;;;4998909;28;20346;-79
2023/12/25 12:23:27;;;;;;;10.98;1.40;;;24.20;99.90;;;;;;4995744;28;20214;-78
2023/12/25 12:25:57;;;;;;;7.45;1.40;;;24.20;99.90;;;;;;4994763;28;20716;-77
2023/12/25 12:28:28;;;;;;;7.07;1.20;;;24.20;99.90;;;;;;4991184;28;20301;-78
2023/12/25 12:30:59;;;;;;;6.03;1.40;;;24.20;99.90;;;;;;5000064;28;20582;-78
2023/12/25 12:33:32;;;;;;;6.10;1.35;;;24.20;99.90;;;;;;4997847;28;20511;-78
2023/12/25 12:36:04;;;;;;;7.13;1.30;;;24.20;99.90;;;;;;5003745;28;20228;-78
2023/12/25 12:38:35;;;;;;;5.13;1.17;;;24.20;99.90;;;;;;4998697;28;20209;-78
2023/12/25 12:41:06;;;;;;;7.53;1.50;;;24.20;99.90;;;;;;5001761;28;20226;-77
2023/12/25 12:43:37;;;;;;;7.72;1.40;;;24.20;99.90;;;;;;5003266;28;20219;-78
2023/12/25 12:46:21;;;;;;;5.70;1.17;;;24.20;99.90;;;;;;4995435;28;20217;-78
2023/12/25 12:48:53;;;;;;;5.03;1.23;;;24.20;99.90;;;;;;5003844;28;20236;-79
2023/12/25 12:51:27;;;;;;;5.18;1.40;;;24.20;99.90;;;;;;5007630;28;20243;-78
2023/12/25 12:53:58;;;;;;;4.40;1.20;;;24.20;99.90;;;;;;5029261;28;20227;-77
2023/12/25 12:56:31;;;;;;;5.35;1.30;;;24.20;99.90;;;;;;4996224;28;20223;-78
2023/12/25 12:59:02;;;;;;;4.07;1.02;;;24.20;99.90;;;;;;4998456;28;20229;-78
2023/12/25 13:01:33;;;;;;;3.80;1.15;;;24.20;99.90;;;;;;4989711;28;20761;-78
2023/12/25 13:04:05;;;;;;;5.50;1.25;;;24.20;99.90;;;;;;4989168;28;20293;-79
2023/12/25 13:06:36;;;;;;;5.50;1.35;;;24.10;99.90;;;;;;4993879;28;20194;-78
2023/12/25 13:09:07;;;;;;;7.38;1.70;;;24.20;99.90;;;;;;5008584;28;20637;-76